createdAt,value
2022-11-24T00:02:04.740Z,-0.30
2022-11-24T00:04:32.858Z,-0.20
2022-11-24T00:07:00.666Z,-0.20
2022-11-24T00:09:28.396Z,-0.20
2022-11-24T00:11:56.049Z,-0.20
2022-11-24T00:14:23.856Z,-0.20
2022-11-24T00:16:51.529Z,-0.20
2022-11-24T00:19:19.955Z,-0.20
2022-11-24T00:21:47.768Z,-0.20
2022-11-24T00:24:15.498Z,-0.10
2022-11-24T00:26:43.610Z,-0.20
2022-11-24T00:29:12.619Z,-0.10
2022-11-24T00:31:43.088Z,-0.10
2022-11-24T00:34:13.875Z,-0.10
2022-11-24T00:36:43.039Z,-0.10
2022-11-24T00:39:15.858Z,-0.10
2022-11-24T00:41:44.046Z,-0.20
2022-11-24T00:44:11.861Z,-0.30
2022-11-24T00:46:39.827Z,-0.30
2022-11-24T00:49:07.766Z,-0.20
2022-11-24T00:51:35.465Z,-0.20
2022-11-24T00:54:03.537Z,-0.20
2022-11-24T00:56:31.369Z,-0.20
2022-11-24T00:58:59.216Z,-0.20
2022-11-24T01:01:30.504Z,-0.20
2022-11-24T01:04:04.067Z,-0.20
2022-11-24T01:06:32.949Z,-0.20
2022-11-24T01:09:00.681Z,-0.20
2022-11-24T01:11:55.524Z,-0.20
2022-11-24T01:14:25.407Z,-0.20
2022-11-24T01:16:53.757Z,-0.10
2022-11-24T01:19:21.786Z,-0.10
2022-11-24T01:21:49.659Z,-0.20
2022-11-24T01:24:17.470Z,-0.20
2022-11-24T01:26:45.331Z,-0.20
2022-11-24T01:29:13.597Z,-0.10
2022-11-24T01:31:41.304Z,-0.10
2022-11-24T01:34:09.142Z,-0.10
2022-11-24T01:36:36.851Z,-0.10
2022-11-24T01:39:04.728Z,-0.10
2022-11-24T01:41:34.521Z,-0.10
2022-11-24T01:44:02.266Z,-0.10
2022-11-24T01:46:38.162Z,-0.10
2022-11-24T01:49:41.787Z,0.00
2022-11-24T01:52:34.893Z,0.00
2022-11-24T01:55:09.471Z,0.00
2022-11-24T01:57:45.075Z,0.00
2022-11-24T02:00:15.310Z,0.00
2022-11-24T02:02:45.772Z,0.00
2022-11-24T02:06:07.625Z,0.00
2022-11-24T02:09:08.861Z,0.00
2022-11-24T02:11:39.644Z,0.00
2022-11-24T02:14:11.055Z,0.10
2022-11-24T02:16:42.003Z,0.10
2022-11-24T02:19:41.826Z,0.10
2022-11-24T02:22:38.185Z,0.10
2022-11-24T02:25:33.264Z,0.10
2022-11-24T02:28:03.381Z,0.10
2022-11-24T02:30:31.118Z,0.10
2022-11-24T02:32:59.625Z,0.10
2022-11-24T02:35:28.723Z,0.10
2022-11-24T02:37:56.502Z,0.10
2022-11-24T02:40:28.577Z,0.20
2022-11-24T02:43:03.964Z,0.20
2022-11-24T02:45:32.234Z,0.20
2022-11-24T02:47:59.948Z,0.20
2022-11-24T02:50:27.608Z,0.30
2022-11-24T02:52:55.332Z,0.30
2022-11-24T02:55:23.897Z,0.30
2022-11-24T02:57:51.684Z,0.40
2022-11-24T03:00:19.952Z,0.30
2022-11-24T03:02:47.834Z,0.30
2022-11-24T03:05:15.724Z,0.30
2022-11-24T03:07:43.442Z,0.30
2022-11-24T03:10:11.159Z,0.30
2022-11-24T03:12:38.913Z,0.30
2022-11-24T03:15:07.309Z,0.30
2022-11-24T03:17:35.233Z,0.30
2022-11-24T03:20:04.786Z,0.30
2022-11-24T03:22:33.298Z,0.40
2022-11-24T03:25:01.367Z,0.40
2022-11-24T03:27:30.891Z,0.30
2022-11-24T03:29:58.629Z,0.30
2022-11-24T03:32:26.251Z,0.30
2022-11-24T03:34:53.877Z,0.30
2022-11-24T03:37:22.871Z,0.30
2022-11-24T03:39:50.504Z,0.40
2022-11-24T03:42:18.209Z,0.30
2022-11-24T03:44:45.868Z,0.20
2022-11-24T03:47:13.590Z,0.10
2022-11-24T03:49:41.846Z,0.10
2022-11-24T03:52:10.019Z,0.20
2022-11-24T03:54:37.786Z,0.10
2022-11-24T03:57:05.504Z,0.10
2022-11-24T03:59:33.313Z,0.20
2022-11-24T04:02:01.066Z,0.30
2022-11-24T04:04:28.749Z,0.30
2022-11-24T04:06:56.545Z,0.20
2022-11-24T04:09:24.359Z,0.20
2022-11-24T04:12:10.565Z,0.30
2022-11-24T04:14:38.449Z,0.30
2022-11-24T04:17:06.213Z,0.30
2022-11-24T04:19:33.847Z,0.30
2022-11-24T04:22:01.488Z,0.30
2022-11-24T04:24:29.111Z,0.30
2022-11-24T04:26:56.794Z,0.30
2022-11-24T04:29:24.471Z,0.30
2022-11-24T04:31:52.195Z,0.30
2022-11-24T04:34:19.871Z,0.30
2022-11-24T04:36:47.565Z,0.30
2022-11-24T04:39:23.008Z,0.20
2022-11-24T04:41:54.051Z,0.20
2022-11-24T04:44:21.765Z,0.20
2022-11-24T04:46:49.540Z,0.20
2022-11-24T04:49:17.476Z,0.20
2022-11-24T04:51:45.274Z,0.20
2022-11-24T04:54:14.542Z,0.20
2022-11-24T04:56:44.299Z,0.20
2022-11-24T04:59:15.367Z,0.20
2022-11-24T05:01:44.936Z,0.20
2022-11-24T05:04:14.936Z,0.20
2022-11-24T05:06:42.692Z,0.20
2022-11-24T05:09:16.281Z,0.20
2022-11-24T05:11:44.526Z,0.30
2022-11-24T05:14:12.222Z,0.20
2022-11-24T05:16:39.912Z,0.20
2022-11-24T05:19:07.551Z,0.20
2022-11-24T05:21:35.208Z,0.10
2022-11-24T05:24:02.976Z,0.00
2022-11-24T05:26:30.794Z,0.10
2022-11-24T05:28:58.495Z,0.00
2022-11-24T05:31:26.049Z,0.00
2022-11-24T05:33:53.632Z,0.10
2022-11-24T05:36:39.623Z,0.10
2022-11-24T05:39:07.281Z,0.10
2022-11-24T05:41:34.897Z,0.20
2022-11-24T05:44:02.470Z,0.10
2022-11-24T05:46:30.049Z,0.10
2022-11-24T05:48:57.677Z,0.10
2022-11-24T05:51:25.267Z,0.10
2022-11-24T05:53:52.883Z,0.10
2022-11-24T05:56:20.429Z,0.20
2022-11-24T05:58:47.819Z,0.10
2022-11-24T06:01:15.325Z,0.10
2022-11-24T06:03:42.741Z,0.10
2022-11-24T06:06:11.398Z,0.10
2022-11-24T06:08:38.823Z,0.10
2022-11-24T06:11:18.305Z,0.10
2022-11-24T06:13:48.722Z,0.10
2022-11-24T06:16:16.468Z,0.00
2022-11-24T06:18:44.077Z,-0.10
2022-11-24T06:21:12.155Z,0.00
2022-11-24T06:23:40.327Z,0.10
2022-11-24T06:26:07.992Z,0.20
2022-11-24T06:28:35.881Z,0.10
2022-11-24T06:31:05.353Z,0.00
2022-11-24T06:33:38.129Z,0.00
2022-11-24T06:36:10.732Z,0.10
2022-11-24T06:38:38.323Z,0.10
2022-11-24T06:41:10.444Z,0.10
2022-11-24T06:43:38.132Z,0.10
2022-11-24T06:46:05.942Z,0.10
2022-11-24T06:48:33.812Z,0.20
2022-11-24T06:51:04.792Z,0.20
2022-11-24T06:53:37.836Z,0.30
2022-11-24T06:56:15.723Z,0.30
2022-11-24T06:58:47.633Z,0.30
2022-11-24T07:01:20.812Z,0.30
2022-11-24T07:03:49.375Z,0.30
2022-11-24T07:06:18.263Z,0.20
2022-11-24T07:08:46.945Z,0.20
2022-11-24T07:11:21.634Z,0.30
2022-11-24T07:13:56.524Z,0.30
2022-11-24T07:16:28.043Z,0.20
2022-11-24T07:18:56.562Z,0.30
2022-11-24T07:21:25.624Z,0.30
2022-11-24T07:23:56.414Z,0.30
2022-11-24T07:26:24.344Z,0.40
2022-11-24T07:28:52.025Z,0.40
2022-11-24T07:31:25.046Z,0.40
2022-11-24T07:33:55.502Z,0.60
2022-11-24T07:36:23.635Z,0.80
2022-11-24T07:38:51.572Z,0.90
2022-11-24T07:41:21.339Z,1.00
2022-11-24T07:43:49.592Z,1.00
2022-11-24T07:46:19.650Z,1.00
2022-11-24T07:48:47.738Z,1.00
2022-11-24T07:51:16.062Z,1.00
2022-11-24T07:53:44.062Z,1.10
2022-11-24T07:56:12.751Z,1.10
2022-11-24T07:58:40.359Z,1.20
2022-11-24T08:01:14.387Z,1.20
2022-11-24T08:03:43.024Z,1.20
2022-11-24T08:06:32.273Z,1.30
2022-11-24T08:08:59.279Z,1.30
2022-11-24T08:11:27.543Z,1.40
2022-11-24T08:13:55.025Z,1.40
2022-11-24T08:16:22.789Z,1.40
2022-11-24T08:18:55.935Z,1.40
2022-11-24T08:21:24.368Z,1.40
2022-11-24T08:23:56.611Z,1.40
2022-11-24T08:26:25.596Z,1.40
2022-11-24T08:28:58.594Z,1.40
2022-11-24T08:31:33.652Z,1.40
2022-11-24T08:34:03.279Z,1.30
2022-11-24T08:36:31.253Z,1.40
2022-11-24T08:39:00.472Z,1.40
2022-11-24T08:41:29.330Z,1.50
2022-11-24T08:43:57.897Z,1.70
2022-11-24T08:46:25.404Z,1.80
2022-11-24T08:48:54.976Z,1.90
2022-11-24T08:51:26.369Z,2.10
2022-11-24T08:53:59.600Z,2.20
2022-11-24T08:56:29.716Z,2.20
2022-11-24T08:58:58.118Z,2.40
2022-11-24T09:01:27.181Z,2.40
2022-11-24T09:03:55.434Z,2.30
2022-11-24T09:06:31.139Z,2.30
2022-11-24T09:09:00.205Z,2.30
2022-11-24T09:11:29.029Z,2.40
2022-11-24T09:13:56.796Z,2.30
2022-11-24T09:16:29.611Z,2.20
2022-11-24T09:19:04.031Z,2.30
2022-11-24T09:21:34.556Z,2.30
2022-11-24T09:24:02.088Z,2.50
2022-11-24T09:26:34.097Z,2.70
2022-11-24T09:29:03.910Z,2.40
2022-11-24T09:31:35.289Z,2.10
2022-11-24T09:34:09.433Z,2.00
2022-11-24T09:36:37.273Z,1.90
2022-11-24T09:39:05.207Z,2.20
2022-11-24T09:42:12.868Z,2.10
2022-11-24T09:46:04.377Z,2.40
2022-11-24T09:48:39.653Z,2.70
2022-11-24T09:51:14.822Z,2.80
2022-11-24T09:53:49.076Z,2.70
2022-11-24T09:56:26.712Z,2.60
2022-11-24T09:59:18.438Z,2.60
2022-11-24T10:01:47.906Z,2.80
2022-11-24T10:04:34.333Z,2.80
2022-11-24T10:07:30.366Z,2.90
2022-11-24T10:10:25.217Z,3.20
2022-11-24T10:13:09.136Z,3.00
2022-11-24T10:15:48.793Z,3.10
2022-11-24T10:18:34.309Z,3.20
2022-11-24T10:21:16.892Z,3.00
2022-11-24T10:23:49.966Z,2.90
2022-11-24T10:26:36.348Z,2.80
2022-11-24T10:29:21.716Z,3.00
2022-11-24T10:31:55.869Z,3.20
2022-11-24T10:34:30.291Z,3.30
2022-11-24T10:37:23.084Z,3.30
2022-11-24T10:39:59.668Z,2.80
2022-11-24T10:42:30.525Z,3.00
2022-11-24T10:45:15.555Z,2.80
2022-11-24T10:47:45.514Z,3.00
2022-11-24T10:50:33.308Z,2.80
2022-11-24T10:53:29.892Z,3.00
2022-11-24T10:55:59.900Z,2.70
2022-11-24T10:58:37.358Z,2.70
2022-11-24T11:01:14.604Z,2.90
2022-11-24T11:04:01.828Z,3.00
2022-11-24T11:06:32.979Z,2.90
2022-11-24T11:09:09.397Z,2.70
2022-11-24T11:11:39.459Z,2.90
2022-11-24T11:14:10.594Z,3.00
2022-11-24T11:16:48.612Z,3.00
2022-11-24T11:19:48.843Z,3.10
2022-11-24T11:22:48.470Z,3.20
2022-11-24T11:25:25.042Z,3.50
2022-11-24T11:28:22.319Z,3.60
2022-11-24T11:31:17.348Z,3.70
2022-11-24T11:34:21.854Z,3.90
2022-11-24T11:36:56.286Z,3.90
2022-11-24T11:39:48.485Z,3.90
2022-11-24T11:43:01.485Z,3.90
2022-11-24T11:45:32.364Z,3.90
2022-11-24T11:48:27.347Z,3.50
2022-11-24T11:52:11.456Z,3.30
2022-11-24T11:55:08.533Z,3.40
2022-11-24T11:58:15.171Z,3.50
2022-11-24T12:01:01.235Z,3.60
2022-11-24T12:04:03.551Z,3.30
2022-11-24T12:06:34.144Z,3.60
2022-11-24T12:09:20.325Z,3.70
2022-11-24T12:12:46.623Z,3.90
2022-11-24T12:15:52.205Z,4.00
2022-11-24T12:19:03.293Z,4.10
2022-11-24T12:21:53.459Z,4.10
2022-11-24T12:24:51.712Z,4.00
2022-11-24T12:28:20.614Z,4.10
2022-11-24T12:31:11.576Z,4.20
2022-11-24T12:34:27.766Z,4.00
2022-11-24T12:37:39.827Z,4.00
2022-11-24T12:40:47.373Z,4.00
2022-11-24T12:43:35.859Z,4.10
2022-11-24T12:46:21.594Z,3.90
2022-11-24T12:49:14.101Z,3.70
2022-11-24T12:51:52.325Z,3.60
2022-11-24T12:54:21.524Z,3.60
2022-11-24T12:57:16.654Z,3.70
2022-11-24T13:00:16.393Z,3.80
2022-11-24T13:03:17.731Z,3.90
2022-11-24T13:05:56.359Z,4.00
2022-11-24T13:08:23.897Z,3.90
2022-11-24T13:10:56.139Z,3.90
2022-11-24T13:13:30.468Z,3.90
2022-11-24T13:16:35.321Z,3.80
2022-11-24T13:18:57.611Z,3.70
2022-11-24T13:21:51.057Z,3.60
2022-11-24T13:24:19.534Z,3.50
2022-11-24T13:27:16.807Z,3.50
2022-11-24T13:29:51.864Z,3.30
2022-11-24T13:32:19.330Z,3.10
2022-11-24T13:34:55.451Z,3.00
2022-11-24T13:37:26.875Z,3.30
2022-11-24T13:40:13.422Z,3.40
2022-11-24T13:42:58.963Z,3.40
2022-11-24T13:45:41.952Z,3.50
2022-11-24T13:48:22.534Z,3.40
2022-11-24T13:50:50.461Z,3.30
2022-11-24T13:53:46.463Z,3.40
2022-11-24T13:56:13.988Z,3.30
2022-11-24T13:58:51.301Z,3.20
2022-11-24T14:01:28.819Z,3.10
2022-11-24T14:04:30.418Z,3.00
2022-11-24T14:07:09.474Z,3.10
2022-11-24T14:09:49.070Z,3.30
2022-11-24T14:12:25.876Z,3.40
2022-11-24T14:14:57.678Z,3.40
2022-11-24T14:17:28.728Z,3.40
2022-11-24T14:19:58.612Z,3.40
2022-11-24T14:22:35.338Z,3.30
2022-11-24T14:25:04.212Z,3.30
2022-11-24T14:27:40.216Z,3.00
2022-11-24T14:30:10.708Z,2.90
2022-11-24T14:32:38.226Z,3.00
2022-11-24T14:35:33.403Z,3.00
2022-11-24T14:38:04.390Z,2.90
2022-11-24T14:40:52.221Z,2.90
2022-11-24T14:43:29.264Z,2.80
2022-11-24T14:46:04.270Z,2.80
2022-11-24T14:48:36.949Z,2.80
2022-11-24T14:51:12.193Z,2.80
2022-11-24T14:53:51.700Z,2.70
2022-11-24T14:56:37.898Z,2.50
2022-11-24T14:59:26.312Z,2.50
2022-11-24T15:01:54.965Z,2.40
2022-11-24T15:05:00.807Z,2.50
2022-11-24T15:07:29.386Z,2.50
2022-11-24T15:10:02.017Z,2.70
2022-11-24T15:12:42.899Z,2.70
2022-11-24T15:15:17.337Z,2.60
2022-11-24T15:17:51.989Z,2.50
2022-11-24T15:20:46.054Z,2.50
2022-11-24T15:23:31.279Z,2.50
2022-11-24T15:26:18.884Z,2.50
2022-11-24T15:28:49.408Z,2.30
2022-11-24T15:31:16.896Z,2.30
2022-11-24T15:33:44.434Z,2.20
2022-11-24T15:36:14.161Z,2.10
2022-11-24T15:38:41.952Z,2.00
2022-11-24T15:41:27.343Z,1.90
2022-11-24T15:43:59.299Z,1.80
2022-11-24T15:46:29.267Z,1.70
2022-11-24T15:48:57.424Z,1.60
2022-11-24T15:51:26.873Z,1.60
2022-11-24T15:54:00.724Z,1.50
2022-11-24T15:56:36.618Z,1.50
2022-11-24T15:59:05.073Z,1.50
2022-11-24T16:01:34.645Z,1.40
2022-11-24T16:04:02.969Z,1.40
2022-11-24T16:06:30.622Z,1.40
2022-11-24T16:08:58.524Z,1.40
2022-11-24T16:11:26.678Z,1.40
2022-11-24T16:13:54.645Z,1.40
2022-11-24T16:16:25.020Z,1.40
2022-11-24T16:18:52.685Z,1.40
2022-11-24T16:21:20.218Z,1.30
2022-11-24T16:23:48.902Z,1.30
2022-11-24T16:26:16.488Z,1.40
2022-11-24T16:28:45.426Z,1.50
2022-11-24T16:31:16.017Z,1.50
2022-11-24T16:33:45.108Z,1.80
2022-11-24T16:36:13.756Z,1.80
2022-11-24T16:38:41.328Z,1.90
2022-11-24T16:41:10.562Z,1.90
2022-11-24T16:43:38.669Z,1.90
2022-11-24T16:46:32.538Z,1.90
2022-11-24T16:49:03.895Z,1.80
2022-11-24T16:51:34.641Z,1.80
2022-11-24T16:54:03.899Z,1.80
2022-11-24T16:56:32.172Z,1.80
2022-11-24T16:58:59.655Z,1.70
2022-11-24T17:01:27.398Z,1.70
2022-11-24T17:03:54.995Z,1.70
2022-11-24T17:06:22.520Z,1.60
2022-11-24T17:08:49.998Z,1.60
2022-11-24T17:11:24.006Z,1.40
2022-11-24T17:13:51.766Z,1.40
2022-11-24T17:16:21.897Z,1.50
2022-11-24T17:18:50.435Z,1.40
2022-11-24T17:21:24.373Z,1.50
2022-11-24T17:23:56.482Z,1.40
2022-11-24T17:26:25.355Z,1.40
2022-11-24T17:28:53.833Z,1.40
2022-11-24T17:31:27.438Z,1.40
2022-11-24T17:33:57.509Z,1.40
2022-11-24T17:36:26.387Z,1.30
2022-11-24T17:38:53.967Z,1.30
2022-11-24T17:41:23.184Z,1.30
2022-11-24T17:43:56.063Z,1.20
2022-11-24T17:46:28.144Z,1.10
2022-11-24T17:48:56.243Z,0.90
2022-11-24T17:51:25.829Z,0.80
2022-11-24T17:53:55.302Z,0.80
2022-11-24T17:56:25.667Z,1.00
2022-11-24T17:58:58.535Z,1.10
2022-11-24T18:01:32.474Z,1.10
2022-11-24T18:04:00.254Z,1.20
2022-11-24T18:06:29.098Z,1.20
2022-11-24T18:08:58.086Z,1.20
2022-11-24T18:11:32.224Z,1.30
2022-11-24T18:14:02.912Z,1.30
2022-11-24T18:16:34.973Z,1.30
2022-11-24T18:19:09.850Z,1.30
2022-11-24T18:21:42.442Z,1.30
2022-11-24T18:24:12.357Z,1.30
2022-11-24T18:26:43.918Z,1.30
2022-11-24T18:29:12.295Z,1.20
2022-11-24T18:31:40.502Z,1.10
2022-11-24T18:34:08.412Z,1.30
2022-11-24T18:36:36.680Z,1.40
2022-11-24T18:39:06.650Z,1.40
2022-11-24T18:41:34.861Z,1.40
2022-11-24T18:44:03.301Z,1.40
2022-11-24T18:46:30.800Z,1.40
2022-11-24T18:48:58.247Z,1.40
2022-11-24T18:51:27.255Z,1.40
2022-11-24T18:53:55.029Z,1.40
2022-11-24T18:56:22.640Z,1.40
2022-11-24T18:58:54.258Z,1.40
2022-11-24T19:01:28.262Z,1.40
2022-11-24T19:04:02.172Z,1.40
2022-11-24T19:06:37.955Z,1.40
2022-11-24T19:09:22.993Z,1.30
2022-11-24T19:11:50.598Z,1.30
2022-11-24T19:14:20.026Z,1.30
2022-11-24T19:16:48.401Z,1.20
2022-11-24T19:19:17.243Z,1.20
2022-11-24T19:21:45.008Z,1.20
2022-11-24T19:24:13.440Z,1.20
2022-11-24T19:26:41.252Z,1.20
2022-11-24T19:29:09.358Z,1.20
2022-11-24T19:31:40.744Z,1.10
2022-11-24T19:34:08.443Z,1.10
2022-11-24T19:36:36.731Z,1.10
2022-11-24T19:39:05.021Z,1.20
2022-11-24T19:41:33.742Z,1.20
2022-11-24T19:44:01.570Z,1.10
2022-11-24T19:46:30.316Z,1.10
2022-11-24T19:49:01.533Z,1.10
2022-11-24T19:51:38.753Z,1.20
2022-11-24T19:54:09.844Z,1.30
2022-11-24T19:56:38.211Z,1.30
2022-11-24T19:59:06.877Z,1.30
2022-11-24T20:01:37.904Z,1.30
2022-11-24T20:04:09.482Z,1.30
2022-11-24T20:06:40.490Z,1.30
2022-11-24T20:09:11.524Z,1.20
2022-11-24T20:11:40.005Z,1.10
2022-11-24T20:14:10.055Z,1.10
2022-11-24T20:16:37.622Z,1.10
2022-11-24T20:19:10.674Z,1.00
2022-11-24T20:21:39.791Z,0.90
2022-11-24T20:24:23.942Z,1.00
2022-11-24T20:26:56.613Z,1.10
2022-11-24T20:29:24.588Z,1.00
2022-11-24T20:31:55.344Z,1.00
2022-11-24T20:34:23.699Z,1.00
2022-11-24T20:36:53.051Z,1.00
2022-11-24T20:39:25.532Z,1.00
2022-11-24T20:41:55.003Z,0.90
2022-11-24T20:44:23.476Z,0.90
2022-11-24T20:46:51.464Z,0.90
2022-11-24T20:49:22.083Z,0.90
2022-11-24T20:51:55.092Z,1.00
2022-11-24T20:54:23.295Z,1.20
2022-11-24T20:56:51.379Z,1.20
2022-11-24T20:59:22.363Z,1.10
2022-11-24T21:01:51.990Z,1.00
2022-11-24T21:04:26.324Z,1.00
2022-11-24T21:06:56.055Z,1.00
2022-11-24T21:09:24.868Z,1.10
2022-11-24T21:11:52.376Z,1.10
2022-11-24T21:14:19.743Z,1.20
2022-11-24T21:16:47.210Z,1.30
2022-11-24T21:19:18.896Z,1.30
2022-11-24T21:21:47.872Z,1.20
2022-11-24T21:24:21.866Z,1.20
2022-11-24T21:26:51.936Z,1.20
2022-11-24T21:29:22.443Z,1.20
2022-11-24T21:31:50.118Z,1.40
2022-11-24T21:34:20.805Z,1.50
2022-11-24T21:36:48.626Z,1.60
2022-11-24T21:39:16.564Z,1.70
2022-11-24T21:41:44.424Z,1.70
2022-11-24T21:44:13.602Z,1.70
2022-11-24T21:46:46.099Z,1.80
2022-11-24T21:49:18.603Z,1.80
2022-11-24T21:51:46.041Z,1.90
2022-11-24T21:54:13.438Z,2.00
2022-11-24T21:56:40.889Z,2.00
2022-11-24T21:59:08.512Z,2.00
2022-11-24T22:01:35.941Z,2.10
2022-11-24T22:04:03.675Z,2.00
2022-11-24T22:06:32.236Z,2.10
2022-11-24T22:08:59.637Z,2.10
2022-11-24T22:11:27.120Z,2.10
2022-11-24T22:13:54.687Z,2.10
2022-11-24T22:16:24.396Z,2.10
2022-11-24T22:18:52.663Z,2.10
2022-11-24T22:21:33.492Z,2.10
2022-11-24T22:24:01.599Z,2.10
2022-11-24T22:26:31.057Z,2.10
2022-11-24T22:28:58.799Z,2.20
2022-11-24T22:31:29.736Z,2.20
2022-11-24T22:33:59.340Z,2.30
2022-11-24T22:36:29.506Z,2.30
2022-11-24T22:39:00.117Z,2.40
2022-11-24T22:41:27.820Z,2.40
2022-11-24T22:43:55.416Z,2.40
2022-11-24T22:46:26.325Z,2.40
2022-11-24T22:48:55.380Z,2.40
2022-11-24T22:51:33.132Z,2.50
2022-11-24T22:54:06.187Z,2.60
2022-11-24T22:56:34.405Z,2.50
2022-11-24T22:59:03.486Z,2.60
2022-11-24T23:01:33.824Z,2.60
2022-11-24T23:04:02.599Z,2.60
2022-11-24T23:06:32.996Z,2.70
2022-11-24T23:09:02.429Z,2.80
2022-11-24T23:11:41.013Z,2.80
2022-11-24T23:14:14.313Z,2.90
2022-11-24T23:16:42.920Z,2.90
2022-11-24T23:19:10.557Z,2.80
2022-11-24T23:21:39.213Z,2.80
2022-11-24T23:24:08.822Z,2.80
2022-11-24T23:26:39.534Z,2.80
2022-11-24T23:29:08.055Z,2.80
2022-11-24T23:31:35.770Z,2.90
2022-11-24T23:34:04.461Z,3.10
2022-11-24T23:36:33.082Z,3.20
2022-11-24T23:39:11.084Z,3.20
2022-11-24T23:41:38.661Z,3.10
2022-11-24T23:44:06.869Z,3.00
2022-11-24T23:46:34.423Z,3.00
2022-11-24T23:49:01.899Z,3.00
2022-11-24T23:51:32.267Z,3.10
2022-11-24T23:56:45.415Z,3.00
2022-11-24T23:59:13.077Z,3.10
